Ana Sayfa
METAR-TAF:

METAR-TAF

Havaalanları :

Kuala Terengganu, Malezya

Enlem: 05-22-53N, Boylam: 103-06-17E, yükseklik: 6 m

Güncel hava durumu gözlemi

Rapor saat 09:00 UTC de 1 saat ve 5 dakika önce yapıldı.
Rüzgar kuzeydoğudan 4 kt, kuzeybatı ve doğu/güneydoğu arasında değişken
Sıcaklık 33°C
Nem 63%
Basınç 1007 hPa
Görüş mesafesi 10 km veya daha fazla
1700 ft yükseklikte az bulutlu, Kümülonimbus.
30000 ft yükseklikte parçalı çok bulutlu

METAR: WMKN 220900Z 04004KT 320V110 9999 FEW017CB BKN300 33/25 Q1007

Saat: 18:05 (10:05 UTC)

Tahmin

Rapor saat 05:00 UTC de 5 saat ve 5 dakika önce yapıldı.
Ayın 22'si saat 06 UTC'den ayın 23'si saat 06 UTC'ye kadar geçerli Tahmin
Rüzgar doğu/kuzeydoğudan 8 kt
Görüş mesafesi 10 km veya daha fazla
1800 ft yükseklikte az bulutlu
Dönüşüyor
ayın 22'si saat 12 UTC'den ayın 22'si saat 14 UTC'ye kadar
Rüzgar değişken yönden 3 kt

TAF: WMKN 220500Z 2206/2306 07008KT 9999 FEW018 BECMG 2212/2214 VRB03KT

4.000'den fazla havaalanı için hava durumu gözlemleri ve tahminleri (METAR ve TAF raporları).

Kullanılabilir istasyonlar harita üzerinde sarı ve kırmızı noktalarla gösterilir.

İstasyonun adını görmek için fareyi noktanın üzerinde gezdirin.

Sonrasında hava gözlem ve tahminlerini görmek için tıklayın.

Haritayı değiştirmek için: yaklaştırmak için siyah artı işaretli yeşil düğmeye ve uzaklaştırmak için de eksi işaretli düğmeye hızla tıklayın; bitişik haritalar için yeşil okları kullanın.


METAR-TAF: